createdAt,value
2018-05-09T00:00:49.377Z,9.68
2018-05-09T00:03:27.120Z,8.05
2018-05-09T00:06:03.325Z,10.10
2018-05-09T00:08:40.524Z,9.98
2018-05-09T00:11:17.993Z,6.70
2018-05-09T00:13:55.489Z,7.20
2018-05-09T00:16:33.540Z,9.70
2018-05-09T00:19:09.945Z,9.77
2018-05-09T00:21:47.201Z,7.40
2018-05-09T00:24:24.584Z,7.40
2018-05-09T00:27:02.155Z,10.68
2018-05-09T00:29:40.369Z,11.10
2018-05-09T00:32:17.348Z,9.23
2018-05-09T00:34:55.301Z,6.80
2018-05-09T00:37:32.146Z,9.45
2018-05-09T00:40:10.354Z,9.52
2018-05-09T00:42:48.797Z,8.95
2018-05-09T00:45:25.158Z,7.93
2018-05-09T00:48:02.861Z,9.55
2018-05-09T00:50:39.620Z,8.55
2018-05-09T00:53:16.474Z,8.55
2018-05-09T00:55:54.219Z,7.35
2018-05-09T00:58:31.271Z,9.07
2018-05-09T01:01:07.601Z,11.27
2018-05-09T01:03:45.557Z,11.73
2018-05-09T01:06:22.086Z,10.88
2018-05-09T01:08:59.742Z,9.93
2018-05-09T01:11:37.785Z,10.40
2018-05-09T01:14:15.402Z,10.38
2018-05-09T01:16:54.121Z,11.73
2018-05-09T01:19:30.607Z,10.85
2018-05-09T01:22:08.289Z,11.23
2018-05-09T01:24:44.860Z,11.23
2018-05-09T01:27:21.270Z,13.30
2018-05-09T01:29:58.938Z,10.35
2018-05-09T01:32:35.803Z,12.27
2018-05-09T01:35:12.804Z,14.70
2018-05-09T01:37:49.433Z,16.37
2018-05-09T01:40:28.710Z,17.15
2018-05-09T01:43:05.577Z,18.60
2018-05-09T01:45:42.230Z,15.57
2018-05-09T01:48:21.057Z,17.92
2018-05-09T01:50:58.146Z,16.33
2018-05-09T01:53:36.292Z,12.13
2018-05-09T01:56:13.126Z,14.32
2018-05-09T01:58:49.764Z,16.40
2018-05-09T02:01:27.602Z,11.43
2018-05-09T02:04:05.671Z,12.63
2018-05-09T02:06:42.031Z,11.38
2018-05-09T02:09:20.958Z,9.55
2018-05-09T02:11:59.302Z,8.05
2018-05-09T02:14:37.673Z,14.13
2018-05-09T02:17:13.985Z,11.43
2018-05-09T02:19:50.287Z,15.93
2018-05-09T02:22:27.037Z,14.90
2018-05-09T02:25:04.696Z,15.63
2018-05-09T02:27:41.264Z,13.35
2018-05-09T02:30:18.595Z,14.55
2018-05-09T02:32:56.341Z,12.98
2018-05-09T02:35:34.390Z,16.05
2018-05-09T02:38:11.846Z,18.12
2018-05-09T02:40:48.642Z,13.95
2018-05-09T02:43:25.305Z,17.92
2018-05-09T02:46:02.905Z,13.20
2018-05-09T02:48:39.569Z,12.68
2018-05-09T02:51:16.477Z,14.05
2018-05-09T02:53:53.142Z,13.15
2018-05-09T02:56:31.159Z,12.90
2018-05-09T02:59:09.103Z,11.50
2018-05-09T03:01:45.739Z,14.05
2018-05-09T03:04:23.624Z,12.40
2018-05-09T03:07:01.457Z,16.70
2018-05-09T03:09:38.693Z,13.90
2018-05-09T03:12:16.099Z,16.55
2018-05-09T03:14:53.165Z,13.85
2018-05-09T03:17:30.040Z,11.95
2018-05-09T03:20:07.393Z,13.98
2018-05-09T03:22:44.613Z,13.25
2018-05-09T03:25:21.974Z,12.68
2018-05-09T03:28:00.840Z,18.55
2018-05-09T03:30:38.317Z,13.50
2018-05-09T03:33:15.129Z,16.40
2018-05-09T03:35:51.745Z,14.07
2018-05-09T03:38:30.492Z,14.70
2018-05-09T03:41:07.169Z,14.93
2018-05-09T03:43:45.013Z,18.20
2018-05-09T03:46:23.747Z,17.30
2018-05-09T03:49:01.845Z,17.80
2018-05-09T03:51:39.071Z,12.73
2018-05-09T03:54:15.821Z,15.85
2018-05-09T03:56:52.713Z,16.30
2018-05-09T03:59:29.993Z,15.55
2018-05-09T04:02:23.190Z,18.10
2018-05-09T04:05:19.173Z,19.95
2018-05-09T04:08:14.808Z,16.15
2018-05-09T04:10:51.365Z,17.70
2018-05-09T04:13:28.969Z,18.10
2018-05-09T04:16:05.970Z,15.00
2018-05-09T04:18:43.837Z,15.10
2018-05-09T04:21:21.062Z,16.02
2018-05-09T04:23:57.794Z,18.60
2018-05-09T04:26:34.484Z,16.52
2018-05-09T04:29:13.114Z,14.27
2018-05-09T04:31:50.782Z,17.95
2018-05-09T04:34:28.805Z,20.60
2018-05-09T04:37:07.007Z,16.27
2018-05-09T04:39:43.881Z,19.40
2018-05-09T04:42:21.090Z,17.52
2018-05-09T04:44:58.722Z,15.48
2018-05-09T04:47:37.609Z,12.98
2018-05-09T04:50:15.295Z,17.02
2018-05-09T04:52:53.481Z,15.15
2018-05-09T04:55:30.550Z,14.10
2018-05-09T04:58:08.085Z,11.32
2018-05-09T05:00:45.238Z,13.00
2018-05-09T05:03:22.871Z,10.05
2018-05-09T05:06:01.173Z,14.43
2018-05-09T05:08:39.353Z,12.45
2018-05-09T05:11:16.669Z,12.02
2018-05-09T05:13:53.936Z,13.52
2018-05-09T05:16:31.230Z,11.40
2018-05-09T05:19:08.511Z,13.45
2018-05-09T05:21:44.985Z,15.38
2018-05-09T05:24:21.853Z,13.18
2018-05-09T05:26:59.989Z,12.90
2018-05-09T05:29:38.381Z,11.88
2018-05-09T05:32:15.298Z,15.85
2018-05-09T05:34:53.216Z,12.55
2018-05-09T05:37:31.749Z,12.98
2018-05-09T05:40:10.398Z,12.95
2018-05-09T05:42:48.093Z,16.58
2018-05-09T05:45:24.832Z,16.77
2018-05-09T05:48:03.282Z,14.45
2018-05-09T05:50:39.957Z,11.27
2018-05-09T05:53:16.853Z,20.33
2018-05-09T05:55:56.389Z,11.87
2018-05-09T05:58:33.764Z,14.73
2018-05-09T06:01:10.145Z,11.83
2018-05-09T06:03:48.215Z,12.37
2018-05-09T06:06:27.184Z,13.03
2018-05-09T06:09:03.855Z,17.63
2018-05-09T06:11:41.298Z,13.67
2018-05-09T06:14:19.546Z,14.50
2018-05-09T06:16:56.939Z,13.77
2018-05-09T06:19:35.438Z,14.33
2018-05-09T06:22:13.635Z,10.37
2018-05-09T06:24:51.436Z,12.33
2018-05-09T06:27:28.117Z,9.87
2018-05-09T06:30:06.025Z,8.93
2018-05-09T06:32:42.622Z,13.63
2018-05-09T06:35:20.643Z,16.13
2018-05-09T06:37:58.810Z,14.67
2018-05-09T06:40:35.800Z,9.50
2018-05-09T06:43:12.276Z,15.80
2018-05-09T06:45:49.438Z,12.10
2018-05-09T06:48:26.142Z,12.73
2018-05-09T06:51:03.090Z,12.73
2018-05-09T06:53:39.570Z,9.83
2018-05-09T06:56:16.818Z,21.20
2018-05-09T06:58:53.749Z,19.97
2018-05-09T07:01:32.255Z,14.80
2018-05-09T07:04:10.251Z,12.83
2018-05-09T07:06:47.979Z,10.47
2018-05-09T07:09:25.335Z,11.53
2018-05-09T07:12:03.949Z,10.73
2018-05-09T07:14:41.741Z,10.03
2018-05-09T07:17:19.986Z,9.17
2018-05-09T07:19:56.893Z,11.20
2018-05-09T07:22:35.135Z,9.97
2018-05-09T07:25:11.505Z,8.97
2018-05-09T07:27:48.801Z,9.73
2018-05-09T07:30:26.681Z,8.47
2018-05-09T07:33:04.421Z,17.80
2018-05-09T07:35:42.494Z,8.23
2018-05-09T07:38:19.217Z,12.17
2018-05-09T07:40:57.065Z,11.63
2018-05-09T07:43:34.185Z,8.53
2018-05-09T07:46:11.077Z,9.13
2018-05-09T07:48:49.320Z,7.20
2018-05-09T07:51:27.214Z,4.90
2018-05-09T07:54:05.013Z,4.23
2018-05-09T07:56:42.163Z,6.67
2018-05-09T07:59:19.793Z,6.37
2018-05-09T08:01:57.745Z,5.70
2018-05-09T08:04:35.700Z,3.73
2018-05-09T08:07:14.109Z,6.10
2018-05-09T08:09:51.846Z,4.60
2018-05-09T08:12:29.096Z,5.37
2018-05-09T08:15:07.061Z,5.83
2018-05-09T08:17:44.904Z,7.07
2018-05-09T08:20:23.251Z,7.17
2018-05-09T08:23:01.225Z,6.03
2018-05-09T08:25:38.826Z,5.80
2018-05-09T08:28:17.040Z,7.60
2018-05-09T08:30:54.610Z,32.47
2018-05-09T08:33:32.054Z,9.20
2018-05-09T08:36:09.638Z,9.00
2018-05-09T08:38:47.817Z,4.70
2018-05-09T08:41:24.801Z,6.53
2018-05-09T08:44:01.801Z,4.43
2018-05-09T08:46:40.014Z,6.50
2018-05-09T08:49:17.593Z,9.93
2018-05-09T08:51:56.366Z,7.50
2018-05-09T08:54:32.935Z,8.47
2018-05-09T08:57:09.770Z,8.10
2018-05-09T08:59:46.553Z,12.83
2018-05-09T09:02:23.621Z,11.03
2018-05-09T09:05:00.689Z,9.13
2018-05-09T09:07:37.994Z,9.47
2018-05-09T09:10:14.936Z,7.77
2018-05-09T09:12:52.587Z,5.53
2018-05-09T09:15:29.652Z,6.27
2018-05-09T09:18:08.060Z,6.73
2018-05-09T09:20:45.377Z,6.67
2018-05-09T09:23:23.081Z,10.00
2018-05-09T09:25:59.910Z,7.17
2018-05-09T09:28:36.801Z,6.93
2018-05-09T09:31:13.546Z,7.60
2018-05-09T09:33:51.092Z,11.77
2018-05-09T09:36:28.115Z,7.63
2018-05-09T09:39:04.034Z,8.17
2018-05-09T09:41:41.777Z,7.77
2018-05-09T09:44:20.585Z,7.13
2018-05-09T09:46:57.630Z,10.07
2018-05-09T09:49:33.900Z,6.57
2018-05-09T09:52:11.838Z,6.07
2018-05-09T09:54:49.913Z,5.73
2018-05-09T09:57:27.647Z,7.73
2018-05-09T10:00:03.839Z,7.67
2018-05-09T10:02:41.584Z,5.30
2018-05-09T10:05:18.912Z,12.60
2018-05-09T10:07:55.979Z,7.50
2018-05-09T10:10:32.409Z,9.27
2018-05-09T10:13:08.613Z,8.70
2018-05-09T10:15:45.461Z,4.07
2018-05-09T10:18:22.573Z,5.30
2018-05-09T10:20:59.561Z,6.43
2018-05-09T10:23:37.159Z,6.53
2018-05-09T10:26:15.380Z,6.20
2018-05-09T10:28:52.336Z,7.47
2018-05-09T10:31:29.638Z,3.63
2018-05-09T10:34:07.326Z,7.63
2018-05-09T10:36:44.510Z,5.83
2018-05-09T10:39:22.013Z,11.47
2018-05-09T10:42:00.046Z,6.63
2018-05-09T10:44:37.402Z,8.17
2018-05-09T10:47:14.890Z,7.73
2018-05-09T10:49:53.209Z,4.83
2018-05-09T10:52:30.454Z,7.53
2018-05-09T10:55:07.066Z,6.90
2018-05-09T10:57:45.260Z,4.40
2018-05-09T11:00:22.068Z,6.20
2018-05-09T11:03:00.961Z,7.03
2018-05-09T11:05:37.797Z,7.00
2018-05-09T11:08:16.694Z,6.67
2018-05-09T11:10:54.949Z,4.10
2018-05-09T11:13:31.834Z,5.00
2018-05-09T11:16:08.888Z,8.67
2018-05-09T11:18:47.687Z,6.70
2018-05-09T11:21:26.190Z,6.33
2018-05-09T11:24:04.008Z,4.37
2018-05-09T11:26:41.442Z,6.87
2018-05-09T11:29:19.504Z,4.60
2018-05-09T11:31:57.683Z,5.57
2018-05-09T11:34:34.657Z,4.47
2018-05-09T11:37:13.594Z,5.77
2018-05-09T11:39:51.085Z,9.87
2018-05-09T11:42:27.273Z,5.50
2018-05-09T11:45:04.858Z,5.10
2018-05-09T11:47:41.620Z,7.23
2018-05-09T11:50:19.349Z,5.37
2018-05-09T11:52:56.582Z,6.63
2018-05-09T11:55:34.494Z,6.57
2018-05-09T11:58:12.522Z,10.53
2018-05-09T12:00:49.361Z,4.63
2018-05-09T12:03:29.282Z,6.13
2018-05-09T12:06:05.669Z,9.57
2018-05-09T12:08:43.970Z,8.37
2018-05-09T12:11:20.763Z,6.00
2018-05-09T12:13:59.907Z,6.97
2018-05-09T12:16:38.200Z,9.73
2018-05-09T12:19:14.712Z,9.80
2018-05-09T12:21:52.333Z,7.97
2018-05-09T12:24:29.294Z,7.13
2018-05-09T12:27:14.944Z,6.57
2018-05-09T12:29:52.461Z,7.10
2018-05-09T12:32:30.008Z,5.53
2018-05-09T12:35:07.602Z,6.57
2018-05-09T12:37:44.239Z,9.73
2018-05-09T12:40:21.888Z,9.10
2018-05-09T12:42:59.762Z,8.73
2018-05-09T12:45:36.534Z,8.23
2018-05-09T12:48:12.606Z,5.17
2018-05-09T12:50:49.233Z,6.83
2018-05-09T12:53:27.693Z,8.50
2018-05-09T12:56:04.982Z,6.87
2018-05-09T12:58:41.520Z,9.13
2018-05-09T13:01:18.493Z,10.27
2018-05-09T13:03:56.754Z,10.93
2018-05-09T13:06:36.318Z,9.10
2018-05-09T13:09:13.933Z,10.33
2018-05-09T13:11:50.549Z,6.73
2018-05-09T13:14:28.185Z,9.47
2018-05-09T13:17:06.161Z,7.60
2018-05-09T13:19:42.221Z,9.90
2018-05-09T13:22:20.626Z,14.67
2018-05-09T13:24:57.289Z,6.47
2018-05-09T13:27:35.295Z,9.17
2018-05-09T13:30:12.430Z,13.73
2018-05-09T13:32:49.789Z,10.97
2018-05-09T13:35:27.072Z,13.80
2018-05-09T13:38:04.033Z,14.67
2018-05-09T13:40:41.336Z,11.00
2018-05-09T13:43:18.334Z,10.00
2018-05-09T13:45:55.670Z,11.27
2018-05-09T13:48:33.786Z,15.13
2018-05-09T13:51:11.930Z,10.57
2018-05-09T13:53:48.407Z,12.87
2018-05-09T13:56:25.695Z,12.67
2018-05-09T13:59:02.677Z,15.07
2018-05-09T14:01:41.157Z,10.67
2018-05-09T14:04:19.073Z,7.90
2018-05-09T14:06:56.362Z,10.63
2018-05-09T14:09:34.753Z,9.77
2018-05-09T14:12:11.498Z,14.23
2018-05-09T14:14:47.972Z,9.50
2018-05-09T14:17:25.213Z,12.27
2018-05-09T14:20:01.373Z,12.83
2018-05-09T14:22:39.154Z,10.40
2018-05-09T14:25:19.888Z,10.63
2018-05-09T14:27:58.316Z,10.53
2018-05-09T14:30:35.391Z,9.83
2018-05-09T14:33:13.758Z,8.90
2018-05-09T14:35:50.910Z,12.10
2018-05-09T14:38:28.182Z,11.23
2018-05-09T14:41:05.094Z,9.97
2018-05-09T14:43:41.746Z,12.13
2018-05-09T14:46:18.463Z,8.37
2018-05-09T14:48:55.716Z,9.00
2018-05-09T14:51:32.691Z,9.10
2018-05-09T14:54:09.751Z,9.93
2018-05-09T14:56:47.187Z,11.47
2018-05-09T14:59:24.573Z,11.57
2018-05-09T15:02:03.021Z,12.23
2018-05-09T15:04:41.506Z,8.40
2018-05-09T15:07:18.547Z,16.50
2018-05-09T15:09:55.370Z,11.57
2018-05-09T15:12:32.241Z,8.63
2018-05-09T15:15:08.729Z,12.80
2018-05-09T15:17:46.006Z,14.63
2018-05-09T15:20:24.519Z,8.77
2018-05-09T15:23:02.120Z,12.27
2018-05-09T15:25:38.987Z,14.10
2018-05-09T15:28:16.846Z,14.07
2018-05-09T15:30:55.221Z,9.90
2018-05-09T15:33:33.807Z,9.27
2018-05-09T15:36:11.870Z,13.67
2018-05-09T15:38:49.439Z,10.13
2018-05-09T15:41:26.421Z,8.93
2018-05-09T15:44:04.273Z,11.23
2018-05-09T15:46:40.810Z,10.27
2018-05-09T15:49:18.819Z,8.03
2018-05-09T15:51:56.859Z,9.83
2018-05-09T15:54:34.301Z,9.57
2018-05-09T15:57:10.993Z,9.87
2018-05-09T15:59:47.653Z,9.47
2018-05-09T16:02:24.961Z,12.23
2018-05-09T16:05:01.669Z,9.90
2018-05-09T16:07:39.877Z,10.03
2018-05-09T16:10:17.426Z,6.93
2018-05-09T16:12:54.521Z,12.57
2018-05-09T16:15:32.559Z,10.20
2018-05-09T16:18:09.193Z,7.70
2018-05-09T16:20:47.196Z,10.50
2018-05-09T16:23:24.481Z,8.10
2018-05-09T16:26:01.378Z,10.37
2018-05-09T16:28:39.105Z,13.07
2018-05-09T16:31:17.754Z,12.60
2018-05-09T16:33:55.022Z,10.83
2018-05-09T16:36:32.465Z,11.13
2018-05-09T16:39:10.345Z,10.17
2018-05-09T16:41:47.712Z,10.83
2018-05-09T16:44:25.985Z,7.40
2018-05-09T16:47:03.161Z,13.47
2018-05-09T16:49:39.797Z,8.23
2018-05-09T16:52:18.046Z,7.93
2018-05-09T16:54:56.604Z,11.13
2018-05-09T16:57:32.242Z,9.70
2018-05-09T17:00:09.585Z,18.07
2018-05-09T17:02:46.919Z,10.20
2018-05-09T17:05:23.986Z,12.17
2018-05-09T17:08:00.822Z,9.20
2018-05-09T17:10:37.848Z,17.50
2018-05-09T17:13:15.777Z,13.47
2018-05-09T17:15:52.778Z,9.50
2018-05-09T17:18:30.281Z,11.20
2018-05-09T17:21:05.825Z,14.23
2018-05-09T17:23:42.391Z,12.80
2018-05-09T17:26:18.592Z,10.03
2018-05-09T17:28:55.119Z,14.67
2018-05-09T17:31:31.752Z,9.90
2018-05-09T17:34:08.941Z,8.97
2018-05-09T17:36:46.416Z,13.37
2018-05-09T17:39:23.422Z,13.97
2018-05-09T17:41:59.913Z,9.00
2018-05-09T17:44:38.154Z,10.63
2018-05-09T17:47:15.526Z,8.53
2018-05-09T17:49:51.978Z,11.00
2018-05-09T17:52:28.874Z,11.17
2018-05-09T17:55:05.501Z,9.47
2018-05-09T17:57:42.128Z,8.40
2018-05-09T18:00:19.805Z,12.63
2018-05-09T18:02:55.998Z,11.90
2018-05-09T18:05:33.198Z,9.03
2018-05-09T18:08:09.977Z,12.90
2018-05-09T18:10:46.523Z,8.97
2018-05-09T18:13:24.031Z,9.63
2018-05-09T18:16:01.717Z,16.87
2018-05-09T18:18:38.660Z,14.70
2018-05-09T18:21:16.669Z,12.13
2018-05-09T18:23:55.834Z,11.93
2018-05-09T18:26:32.980Z,14.00
2018-05-09T18:29:09.984Z,10.73
2018-05-09T18:31:46.942Z,13.53
2018-05-09T18:34:23.870Z,14.33
2018-05-09T18:37:02.873Z,9.50
2018-05-09T18:39:40.754Z,14.67
2018-05-09T18:42:18.534Z,10.67
2018-05-09T18:44:55.031Z,10.17
2018-05-09T18:47:33.014Z,12.30
2018-05-09T18:50:09.497Z,11.20
2018-05-09T18:52:46.757Z,14.13
2018-05-09T18:55:23.022Z,10.37
2018-05-09T18:58:00.832Z,12.67
2018-05-09T19:00:36.894Z,10.60
2018-05-09T19:03:14.183Z,13.37
2018-05-09T19:05:50.734Z,15.37
2018-05-09T19:08:27.022Z,17.03
2018-05-09T19:11:05.537Z,12.70
2018-05-09T19:13:42.303Z,15.53
2018-05-09T19:16:20.807Z,11.13
2018-05-09T19:18:59.481Z,17.37
2018-05-09T19:21:36.626Z,11.33
2018-05-09T19:24:13.737Z,12.53
2018-05-09T19:26:50.474Z,13.80
2018-05-09T19:29:27.261Z,9.63
2018-05-09T19:32:03.616Z,14.70
2018-05-09T19:34:42.241Z,13.03
2018-05-09T19:37:19.412Z,9.57
2018-05-09T19:39:57.297Z,11.93
2018-05-09T19:42:34.601Z,11.80
2018-05-09T19:45:12.810Z,12.67
2018-05-09T19:47:48.844Z,13.70
2018-05-09T19:50:27.057Z,12.33
2018-05-09T19:53:05.345Z,12.20
2018-05-09T19:55:44.641Z,14.00
2018-05-09T19:58:23.712Z,11.43
2018-05-09T20:01:00.902Z,13.43
2018-05-09T20:03:37.488Z,15.73
2018-05-09T20:06:13.736Z,13.27
2018-05-09T20:08:50.674Z,13.87
2018-05-09T20:11:26.899Z,11.90
2018-05-09T20:14:04.785Z,10.93
2018-05-09T20:16:41.197Z,11.13
2018-05-09T20:19:18.550Z,16.57
2018-05-09T20:21:56.104Z,12.13
2018-05-09T20:24:33.993Z,10.93
2018-05-09T20:27:12.250Z,11.07
2018-05-09T20:29:49.484Z,11.37
2018-05-09T20:32:39.460Z,12.40
2018-05-09T20:35:16.140Z,16.70
2018-05-09T20:37:53.479Z,14.07
2018-05-09T20:40:30.510Z,12.77
2018-05-09T20:43:07.562Z,16.27
2018-05-09T20:45:45.516Z,13.97
2018-05-09T20:48:23.183Z,18.60
2018-05-09T20:51:02.327Z,14.07
2018-05-09T20:53:40.168Z,15.60
2018-05-09T20:56:16.766Z,12.40
2018-05-09T20:58:53.709Z,14.57
2018-05-09T21:01:48.172Z,15.83
2018-05-09T21:04:26.857Z,16.90
2018-05-09T21:07:04.342Z,13.83
2018-05-09T21:09:44.954Z,18.33
2018-05-09T21:12:26.049Z,14.10
2018-05-09T21:15:01.701Z,15.53
2018-05-09T21:17:40.137Z,14.53
2018-05-09T21:20:17.951Z,14.37
2018-05-09T21:22:54.705Z,17.63
2018-05-09T21:25:30.940Z,13.40
2018-05-09T21:28:09.184Z,17.90
2018-05-09T21:30:47.041Z,16.00
2018-05-09T21:33:25.524Z,20.37
2018-05-09T21:36:04.127Z,16.90
2018-05-09T21:38:43.022Z,15.27
2018-05-09T21:41:20.126Z,23.93
2018-05-09T21:43:58.544Z,16.57
2018-05-09T21:46:35.142Z,16.20
2018-05-09T21:49:11.693Z,15.80
2018-05-09T21:51:48.105Z,14.90
2018-05-09T21:54:25.947Z,17.63
2018-05-09T21:57:03.622Z,20.17
2018-05-09T21:59:41.781Z,18.50
2018-05-09T22:02:18.889Z,20.60
2018-05-09T22:04:56.971Z,16.50
2018-05-09T22:07:34.365Z,19.07
2018-05-09T22:10:10.586Z,19.27
2018-05-09T22:12:47.265Z,20.03
2018-05-09T22:15:24.262Z,18.53
2018-05-09T22:18:00.489Z,20.00
2018-05-09T22:20:38.274Z,15.90
2018-05-09T22:23:15.232Z,17.30
2018-05-09T22:25:52.177Z,22.70
2018-05-09T22:28:30.367Z,17.10
2018-05-09T22:31:07.361Z,15.07
2018-05-09T22:33:44.322Z,12.90
2018-05-09T22:36:22.061Z,21.43
2018-05-09T22:39:00.111Z,13.20
2018-05-09T22:41:36.801Z,13.25
2018-05-09T22:44:14.397Z,19.53
2018-05-09T22:46:51.685Z,12.20
2018-05-09T22:49:27.918Z,18.97
2018-05-09T22:52:04.420Z,11.73
2018-05-09T22:54:42.317Z,18.60
2018-05-09T22:57:18.658Z,13.20
2018-05-09T22:59:56.264Z,16.25
2018-05-09T23:02:33.841Z,15.90
2018-05-09T23:05:12.386Z,18.57
2018-05-09T23:07:48.609Z,16.80
2018-05-09T23:10:25.838Z,17.23
2018-05-09T23:13:02.609Z,16.25
2018-05-09T23:15:39.601Z,17.25
2018-05-09T23:18:16.543Z,15.32
2018-05-09T23:20:52.808Z,13.82
2018-05-09T23:23:30.676Z,19.70
2018-05-09T23:26:07.534Z,14.60
2018-05-09T23:28:45.320Z,19.13
2018-05-09T23:31:21.872Z,16.15
2018-05-09T23:33:58.867Z,13.20
2018-05-09T23:36:35.665Z,12.85
2018-05-09T23:39:13.524Z,14.60
2018-05-09T23:41:51.635Z,12.95
2018-05-09T23:44:28.315Z,16.67
2018-05-09T23:47:06.182Z,14.93
2018-05-09T23:49:43.509Z,16.93
2018-05-09T23:52:22.320Z,15.43
2018-05-09T23:54:58.458Z,15.00
2018-05-09T23:57:35.349Z,16.02
